sensor_id;sensor_type;location;lat;lon;timestamp;P1;durP1;ratioP1;P2;durP2;ratioP2
19519;SDS011;9904;52.246;20.898;2023-05-10T00:01:10;9.80;;;4.03;;
19519;SDS011;9904;52.246;20.898;2023-05-10T00:03:37;10.77;;;4.73;;
19519;SDS011;9904;52.246;20.898;2023-05-10T00:06:04;9.23;;;4.40;;
19519;SDS011;9904;52.246;20.898;2023-05-10T00:08:30;10.57;;;4.23;;
19519;SDS011;9904;52.246;20.898;2023-05-10T00:10:57;7.50;;;4.20;;
19519;SDS011;9904;52.246;20.898;2023-05-10T00:13:23;12.57;;;4.60;;
19519;SDS011;9904;52.246;20.898;2023-05-10T00:15:50;10.10;;;4.10;;
19519;SDS011;9904;52.246;20.898;2023-05-10T00:18:17;9.27;;;4.73;;
19519;SDS011;9904;52.246;20.898;2023-05-10T00:20:43;12.20;;;4.70;;
19519;SDS011;9904;52.246;20.898;2023-05-10T00:23:12;8.13;;;4.33;;
19519;SDS011;9904;52.246;20.898;2023-05-10T00:25:38;15.07;;;4.70;;
19519;SDS011;9904;52.246;20.898;2023-05-10T00:28:05;10.80;;;4.70;;
19519;SDS011;9904;52.246;20.898;2023-05-10T00:30:31;13.70;;;4.70;;
19519;SDS011;9904;52.246;20.898;2023-05-10T00:32:58;11.33;;;4.60;;
19519;SDS011;9904;52.246;20.898;2023-05-10T00:35:24;11.80;;;5.10;;
19519;SDS011;9904;52.246;20.898;2023-05-10T00:37:51;9.13;;;4.40;;
19519;SDS011;9904;52.246;20.898;2023-05-10T00:40:17;12.57;;;4.77;;
19519;SDS011;9904;52.246;20.898;2023-05-10T00:42:44;11.53;;;4.70;;
19519;SDS011;9904;52.246;20.898;2023-05-10T00:45:10;10.00;;;4.70;;
19519;SDS011;9904;52.246;20.898;2023-05-10T00:47:38;10.33;;;4.50;;
19519;SDS011;9904;52.246;20.898;2023-05-10T00:50:05;16.53;;;4.70;;
19519;SDS011;9904;52.246;20.898;2023-05-10T00:52:32;11.93;;;4.73;;
19519;SDS011;9904;52.246;20.898;2023-05-10T00:54:59;12.47;;;4.93;;
19519;SDS011;9904;52.246;20.898;2023-05-10T00:57:26;11.47;;;4.60;;
19519;SDS011;9904;52.246;20.898;2023-05-10T00:59:53;9.20;;;4.70;;
19519;SDS011;9904;52.246;20.898;2023-05-10T01:02:19;13.20;;;4.43;;
19519;SDS011;9904;52.246;20.898;2023-05-10T01:04:46;9.47;;;4.23;;
19519;SDS011;9904;52.246;20.898;2023-05-10T01:07:13;12.27;;;4.40;;
19519;SDS011;9904;52.246;20.898;2023-05-10T01:09:40;11.90;;;4.67;;
19519;SDS011;9904;52.246;20.898;2023-05-10T01:12:06;11.33;;;4.40;;
19519;SDS011;9904;52.246;20.898;2023-05-10T01:14:33;8.87;;;4.37;;
19519;SDS011;9904;52.246;20.898;2023-05-10T01:17:02;10.50;;;4.47;;
19519;SDS011;9904;52.246;20.898;2023-05-10T01:19:29;11.33;;;4.57;;
19519;SDS011;9904;52.246;20.898;2023-05-10T01:24:53;13.63;;;4.10;;
19519;SDS011;9904;52.246;20.898;2023-05-10T01:35:42;8.20;;;3.93;;
19519;SDS011;9904;52.246;20.898;2023-05-10T01:38:18;10.87;;;4.30;;
19519;SDS011;9904;52.246;20.898;2023-05-10T01:46:24;7.20;;;3.90;;
19519;SDS011;9904;52.246;20.898;2023-05-10T01:48:55;9.33;;;4.20;;
19519;SDS011;9904;52.246;20.898;2023-05-10T01:51:25;9.30;;;3.57;;
19519;SDS011;9904;52.246;20.898;2023-05-10T01:53:54;7.77;;;4.30;;
19519;SDS011;9904;52.246;20.898;2023-05-10T01:56:27;8.20;;;3.87;;
19519;SDS011;9904;52.246;20.898;2023-05-10T01:58:54;11.20;;;4.17;;
19519;SDS011;9904;52.246;20.898;2023-05-10T02:01:21;10.43;;;4.37;;
19519;SDS011;9904;52.246;20.898;2023-05-10T02:03:49;11.43;;;4.60;;
19519;SDS011;9904;52.246;20.898;2023-05-10T02:06:16;8.83;;;3.53;;
19519;SDS011;9904;52.246;20.898;2023-05-10T02:08:44;9.70;;;4.20;;
19519;SDS011;9904;52.246;20.898;2023-05-10T02:11:13;15.63;;;4.10;;
19519;SDS011;9904;52.246;20.898;2023-05-10T02:13:40;13.70;;;4.97;;
19519;SDS011;9904;52.246;20.898;2023-05-10T02:16:07;11.73;;;3.83;;
19519;SDS011;9904;52.246;20.898;2023-05-10T02:18:34;7.90;;;4.00;;
19519;SDS011;9904;52.246;20.898;2023-05-10T02:21:02;9.93;;;3.83;;
19519;SDS011;9904;52.246;20.898;2023-05-10T02:23:29;9.97;;;3.93;;
19519;SDS011;9904;52.246;20.898;2023-05-10T02:25:56;9.63;;;3.90;;
19519;SDS011;9904;52.246;20.898;2023-05-10T02:28:23;13.67;;;4.00;;
19519;SDS011;9904;52.246;20.898;2023-05-10T02:30:52;8.27;;;4.20;;
19519;SDS011;9904;52.246;20.898;2023-05-10T02:33:19;9.23;;;3.90;;
19519;SDS011;9904;52.246;20.898;2023-05-10T02:35:46;8.87;;;4.07;;
19519;SDS011;9904;52.246;20.898;2023-05-10T02:38:13;10.50;;;4.03;;
19519;SDS011;9904;52.246;20.898;2023-05-10T02:40:40;7.40;;;3.67;;
19519;SDS011;9904;52.246;20.898;2023-05-10T02:43:09;9.47;;;4.03;;
19519;SDS011;9904;52.246;20.898;2023-05-10T02:45:38;11.63;;;3.97;;
19519;SDS011;9904;52.246;20.898;2023-05-10T02:48:05;10.30;;;4.27;;
19519;SDS011;9904;52.246;20.898;2023-05-10T02:50:33;8.37;;;3.90;;
19519;SDS011;9904;52.246;20.898;2023-05-10T02:53:00;12.20;;;3.77;;
19519;SDS011;9904;52.246;20.898;2023-05-10T02:55:31;11.83;;;4.03;;
19519;SDS011;9904;52.246;20.898;2023-05-10T02:58:00;10.33;;;3.90;;
19519;SDS011;9904;52.246;20.898;2023-05-10T03:00:27;12.20;;;4.07;;
19519;SDS011;9904;52.246;20.898;2023-05-10T03:02:54;9.53;;;3.97;;
19519;SDS011;9904;52.246;20.898;2023-05-10T03:05:21;12.97;;;3.90;;
19519;SDS011;9904;52.246;20.898;2023-05-10T03:07:48;10.93;;;4.23;;
19519;SDS011;9904;52.246;20.898;2023-05-10T03:10:14;9.73;;;4.00;;
19519;SDS011;9904;52.246;20.898;2023-05-10T03:15:38;8.47;;;4.20;;
19519;SDS011;9904;52.246;20.898;2023-05-10T03:20:46;9.33;;;4.53;;
19519;SDS011;9904;52.246;20.898;2023-05-10T03:25:44;11.07;;;4.40;;
19519;SDS011;9904;52.246;20.898;2023-05-10T03:28:13;8.70;;;3.83;;
19519;SDS011;9904;52.246;20.898;2023-05-10T03:30:41;11.23;;;3.90;;
19519;SDS011;9904;52.246;20.898;2023-05-10T03:33:08;9.93;;;4.10;;
19519;SDS011;9904;52.246;20.898;2023-05-10T03:35:35;8.60;;;3.90;;
19519;SDS011;9904;52.246;20.898;2023-05-10T03:38:01;8.23;;;3.60;;
19519;SDS011;9904;52.246;20.898;2023-05-10T03:40:28;12.20;;;3.67;;
19519;SDS011;9904;52.246;20.898;2023-05-10T03:42:58;19.03;;;3.73;;
19519;SDS011;9904;52.246;20.898;2023-05-10T03:45:24;8.87;;;4.20;;
19519;SDS011;9904;52.246;20.898;2023-05-10T03:47:51;11.53;;;4.30;;
19519;SDS011;9904;52.246;20.898;2023-05-10T03:50:18;13.47;;;4.10;;
19519;SDS011;9904;52.246;20.898;2023-05-10T03:52:45;9.30;;;4.13;;
19519;SDS011;9904;52.246;20.898;2023-05-10T03:55:12;10.73;;;4.33;;
19519;SDS011;9904;52.246;20.898;2023-05-10T03:57:39;14.83;;;4.23;;
19519;SDS011;9904;52.246;20.898;2023-05-10T04:00:05;9.53;;;4.20;;
19519;SDS011;9904;52.246;20.898;2023-05-10T04:02:32;12.43;;;3.70;;
19519;SDS011;9904;52.246;20.898;2023-05-10T04:04:59;10.00;;;4.00;;
19519;SDS011;9904;52.246;20.898;2023-05-10T04:07:26;8.20;;;3.57;;
19519;SDS011;9904;52.246;20.898;2023-05-10T04:09:52;9.10;;;4.00;;
19519;SDS011;9904;52.246;20.898;2023-05-10T04:12:19;17.70;;;4.40;;
19519;SDS011;9904;52.246;20.898;2023-05-10T04:14:46;12.97;;;3.70;;
19519;SDS011;9904;52.246;20.898;2023-05-10T04:17:12;7.83;;;3.57;;
19519;SDS011;9904;52.246;20.898;2023-05-10T04:19:39;10.50;;;3.87;;
19519;SDS011;9904;52.246;20.898;2023-05-10T04:22:05;9.93;;;4.00;;
19519;SDS011;9904;52.246;20.898;2023-05-10T04:24:32;9.90;;;4.00;;
19519;SDS011;9904;52.246;20.898;2023-05-10T04:26:58;8.37;;;3.87;;
19519;SDS011;9904;52.246;20.898;2023-05-10T04:29:25;9.70;;;3.60;;
19519;SDS011;9904;52.246;20.898;2023-05-10T04:31:52;12.27;;;3.83;;
19519;SDS011;9904;52.246;20.898;2023-05-10T04:34:20;10.53;;;4.07;;
19519;SDS011;9904;52.246;20.898;2023-05-10T04:36:46;13.50;;;4.27;;
19519;SDS011;9904;52.246;20.898;2023-05-10T04:39:13;8.83;;;3.77;;
19519;SDS011;9904;52.246;20.898;2023-05-10T04:41:39;17.67;;;4.23;;
19519;SDS011;9904;52.246;20.898;2023-05-10T04:44:06;15.23;;;4.07;;
19519;SDS011;9904;52.246;20.898;2023-05-10T04:46:32;10.67;;;4.20;;
19519;SDS011;9904;52.246;20.898;2023-05-10T04:48:59;12.40;;;4.53;;
19519;SDS011;9904;52.246;20.898;2023-05-10T04:51:25;11.30;;;3.50;;
19519;SDS011;9904;52.246;20.898;2023-05-10T04:53:52;12.67;;;3.97;;
19519;SDS011;9904;52.246;20.898;2023-05-10T04:56:31;10.57;;;3.47;;
19519;SDS011;9904;52.246;20.898;2023-05-10T04:58:58;11.73;;;3.90;;
19519;SDS011;9904;52.246;20.898;2023-05-10T05:01:24;10.50;;;4.27;;
19519;SDS011;9904;52.246;20.898;2023-05-10T05:03:51;10.10;;;4.20;;
19519;SDS011;9904;52.246;20.898;2023-05-10T05:06:19;9.63;;;3.43;;
19519;SDS011;9904;52.246;20.898;2023-05-10T05:08:47;13.20;;;4.20;;
19519;SDS011;9904;52.246;20.898;2023-05-10T05:11:15;17.83;;;4.10;;
19519;SDS011;9904;52.246;20.898;2023-05-10T05:13:42;7.77;;;3.53;;
19519;SDS011;9904;52.246;20.898;2023-05-10T05:16:09;11.57;;;3.77;;
19519;SDS011;9904;52.246;20.898;2023-05-10T05:18:37;10.30;;;3.60;;
19519;SDS011;9904;52.246;20.898;2023-05-10T05:21:03;15.17;;;4.07;;
19519;SDS011;9904;52.246;20.898;2023-05-10T05:23:39;11.00;;;3.67;;
19519;SDS011;9904;52.246;20.898;2023-05-10T05:26:06;10.47;;;3.67;;
19519;SDS011;9904;52.246;20.898;2023-05-10T05:28:32;10.40;;;3.50;;
19519;SDS011;9904;52.246;20.898;2023-05-10T05:31:11;11.00;;;3.53;;
19519;SDS011;9904;52.246;20.898;2023-05-10T05:33:38;11.83;;;3.53;;
19519;SDS011;9904;52.246;20.898;2023-05-10T05:36:05;11.80;;;4.40;;
19519;SDS011;9904;52.246;20.898;2023-05-10T05:38:32;21.33;;;4.10;;
19519;SDS011;9904;52.246;20.898;2023-05-10T05:40:58;11.80;;;3.57;;
19519;SDS011;9904;52.246;20.898;2023-05-10T05:43:25;11.90;;;4.10;;
19519;SDS011;9904;52.246;20.898;2023-05-10T05:45:52;12.33;;;3.83;;
19519;SDS011;9904;52.246;20.898;2023-05-10T05:48:20;8.73;;;3.20;;
19519;SDS011;9904;52.246;20.898;2023-05-10T05:50:46;18.20;;;3.80;;
19519;SDS011;9904;52.246;20.898;2023-05-10T05:53:13;14.10;;;3.77;;
19519;SDS011;9904;52.246;20.898;2023-05-10T05:55:39;9.00;;;3.33;;
19519;SDS011;9904;52.246;20.898;2023-05-10T05:58:06;7.83;;;3.53;;
19519;SDS011;9904;52.246;20.898;2023-05-10T06:00:33;14.33;;;3.80;;
19519;SDS011;9904;52.246;20.898;2023-05-10T06:02:59;8.23;;;4.00;;
19519;SDS011;9904;52.246;20.898;2023-05-10T06:05:26;12.77;;;3.90;;
19519;SDS011;9904;52.246;20.898;2023-05-10T06:07:53;18.90;;;3.50;;
19519;SDS011;9904;52.246;20.898;2023-05-10T06:10:19;9.03;;;3.30;;
19519;SDS011;9904;52.246;20.898;2023-05-10T06:12:46;9.60;;;3.20;;
19519;SDS011;9904;52.246;20.898;2023-05-10T06:15:12;10.57;;;2.77;;
19519;SDS011;9904;52.246;20.898;2023-05-10T06:17:39;12.83;;;4.17;;
19519;SDS011;9904;52.246;20.898;2023-05-10T06:20:06;9.43;;;3.07;;
19519;SDS011;9904;52.246;20.898;2023-05-10T06:22:33;13.57;;;3.20;;
19519;SDS011;9904;52.246;20.898;2023-05-10T06:25:00;10.97;;;3.50;;
19519;SDS011;9904;52.246;20.898;2023-05-10T06:27:27;8.97;;;3.47;;
19519;SDS011;9904;52.246;20.898;2023-05-10T06:29:53;8.50;;;3.20;;
19519;SDS011;9904;52.246;20.898;2023-05-10T06:32:34;18.37;;;3.83;;
19519;SDS011;9904;52.246;20.898;2023-05-10T06:35:01;11.17;;;3.10;;
19519;SDS011;9904;52.246;20.898;2023-05-10T06:37:28;7.20;;;3.07;;
19519;SDS011;9904;52.246;20.898;2023-05-10T06:39:54;7.87;;;2.90;;
19519;SDS011;9904;52.246;20.898;2023-05-10T06:42:21;10.63;;;2.90;;
19519;SDS011;9904;52.246;20.898;2023-05-10T06:44:47;13.70;;;3.23;;
19519;SDS011;9904;52.246;20.898;2023-05-10T06:47:14;17.93;;;3.90;;
19519;SDS011;9904;52.246;20.898;2023-05-10T06:49:40;9.33;;;3.40;;
19519;SDS011;9904;52.246;20.898;2023-05-10T06:52:07;7.10;;;2.90;;
19519;SDS011;9904;52.246;20.898;2023-05-10T06:54:33;6.33;;;3.00;;
19519;SDS011;9904;52.246;20.898;2023-05-10T06:57:00;5.43;;;3.33;;
19519;SDS011;9904;52.246;20.898;2023-05-10T06:59:29;9.80;;;3.00;;
19519;SDS011;9904;52.246;20.898;2023-05-10T07:01:55;8.73;;;2.77;;
19519;SDS011;9904;52.246;20.898;2023-05-10T07:04:22;4.43;;;2.43;;
19519;SDS011;9904;52.246;20.898;2023-05-10T07:06:48;12.80;;;2.63;;
19519;SDS011;9904;52.246;20.898;2023-05-10T07:09:15;9.13;;;2.97;;
19519;SDS011;9904;52.246;20.898;2023-05-10T07:11:42;8.37;;;2.67;;
19519;SDS011;9904;52.246;20.898;2023-05-10T07:14:08;5.47;;;2.40;;
19519;SDS011;9904;52.246;20.898;2023-05-10T07:16:35;8.93;;;3.00;;
19519;SDS011;9904;52.246;20.898;2023-05-10T07:19:02;6.10;;;2.30;;
19519;SDS011;9904;52.246;20.898;2023-05-10T07:21:28;8.23;;;2.60;;
19519;SDS011;9904;52.246;20.898;2023-05-10T07:23:55;10.03;;;2.53;;
19519;SDS011;9904;52.246;20.898;2023-05-10T07:26:22;9.13;;;2.70;;
19519;SDS011;9904;52.246;20.898;2023-05-10T07:28:48;5.47;;;2.60;;
19519;SDS011;9904;52.246;20.898;2023-05-10T07:31:15;9.70;;;2.67;;
19519;SDS011;9904;52.246;20.898;2023-05-10T07:33:41;15.33;;;2.40;;
19519;SDS011;9904;52.246;20.898;2023-05-10T07:36:08;14.47;;;2.60;;
19519;SDS011;9904;52.246;20.898;2023-05-10T07:38:34;5.70;;;2.60;;
19519;SDS011;9904;52.246;20.898;2023-05-10T07:41:04;10.43;;;2.27;;
19519;SDS011;9904;52.246;20.898;2023-05-10T07:43:31;9.87;;;2.30;;
19519;SDS011;9904;52.246;20.898;2023-05-10T07:45:57;7.00;;;1.80;;
19519;SDS011;9904;52.246;20.898;2023-05-10T07:48:25;9.80;;;2.27;;
19519;SDS011;9904;52.246;20.898;2023-05-10T07:50:52;7.20;;;2.33;;
19519;SDS011;9904;52.246;20.898;2023-05-10T07:53:18;4.73;;;2.00;;
19519;SDS011;9904;52.246;20.898;2023-05-10T07:55:49;11.20;;;2.37;;
19519;SDS011;9904;52.246;20.898;2023-05-10T07:58:16;12.00;;;2.20;;
19519;SDS011;9904;52.246;20.898;2023-05-10T08:00:43;10.93;;;2.20;;
19519;SDS011;9904;52.246;20.898;2023-05-10T08:03:09;6.13;;;2.30;;
19519;SDS011;9904;52.246;20.898;2023-05-10T08:05:36;6.57;;;2.05;;
19519;SDS011;9904;52.246;20.898;2023-05-10T08:08:03;6.27;;;2.00;;
19519;SDS011;9904;52.246;20.898;2023-05-10T08:10:30;10.63;;;2.10;;
19519;SDS011;9904;52.246;20.898;2023-05-10T08:12:56;8.53;;;1.80;;
19519;SDS011;9904;52.246;20.898;2023-05-10T08:15:24;5.10;;;2.00;;
19519;SDS011;9904;52.246;20.898;2023-05-10T08:17:51;6.77;;;1.90;;
19519;SDS011;9904;52.246;20.898;2023-05-10T08:20:18;6.53;;;2.00;;
19519;SDS011;9904;52.246;20.898;2023-05-10T08:22:45;5.77;;;2.10;;
19519;SDS011;9904;52.246;20.898;2023-05-10T08:25:12;7.33;;;2.00;;
19519;SDS011;9904;52.246;20.898;2023-05-10T08:27:38;19.80;;;2.73;;
19519;SDS011;9904;52.246;20.898;2023-05-10T08:30:05;8.23;;;2.17;;
19519;SDS011;9904;52.246;20.898;2023-05-10T08:32:32;11.60;;;1.90;;
19519;SDS011;9904;52.246;20.898;2023-05-10T08:35:01;6.13;;;2.10;;
19519;SDS011;9904;52.246;20.898;2023-05-10T08:37:29;7.50;;;2.00;;
19519;SDS011;9904;52.246;20.898;2023-05-10T08:39:56;8.53;;;2.10;;
19519;SDS011;9904;52.246;20.898;2023-05-10T08:42:22;12.67;;;1.97;;
19519;SDS011;9904;52.246;20.898;2023-05-10T08:44:52;7.88;;;2.28;;
19519;SDS011;9904;52.246;20.898;2023-05-10T08:47:20;7.27;;;1.80;;
19519;SDS011;9904;52.246;20.898;2023-05-10T08:49:47;11.60;;;2.47;;
19519;SDS011;9904;52.246;20.898;2023-05-10T08:52:17;7.73;;;1.70;;
19519;SDS011;9904;52.246;20.898;2023-05-10T08:54:44;5.27;;;1.90;;
19519;SDS011;9904;52.246;20.898;2023-05-10T08:57:11;13.70;;;2.10;;
19519;SDS011;9904;52.246;20.898;2023-05-10T08:59:37;9.57;;;2.33;;
19519;SDS011;9904;52.246;20.898;2023-05-10T09:02:05;7.13;;;1.90;;
19519;SDS011;9904;52.246;20.898;2023-05-10T09:04:32;6.27;;;1.97;;
19519;SDS011;9904;52.246;20.898;2023-05-10T09:06:59;2.87;;;1.80;;
19519;SDS011;9904;52.246;20.898;2023-05-10T09:09:25;7.90;;;2.00;;
19519;SDS011;9904;52.246;20.898;2023-05-10T09:11:53;9.23;;;1.77;;
19519;SDS011;9904;52.246;20.898;2023-05-10T09:14:20;6.93;;;2.20;;
19519;SDS011;9904;52.246;20.898;2023-05-10T09:16:46;10.80;;;2.20;;
19519;SDS011;9904;52.246;20.898;2023-05-10T09:19:14;5.57;;;1.80;;
19519;SDS011;9904;52.246;20.898;2023-05-10T09:21:41;4.43;;;1.97;;
19519;SDS011;9904;52.246;20.898;2023-05-10T09:24:07;8.40;;;2.17;;
19519;SDS011;9904;52.246;20.898;2023-05-10T09:26:35;4.10;;;1.80;;
19519;SDS011;9904;52.246;20.898;2023-05-10T09:29:02;9.93;;;2.07;;
19519;SDS011;9904;52.246;20.898;2023-05-10T09:31:48;8.80;;;2.00;;
19519;SDS011;9904;52.246;20.898;2023-05-10T09:34:31;9.70;;;1.97;;
19519;SDS011;9904;52.246;20.898;2023-05-10T09:36:59;9.10;;;2.00;;
19519;SDS011;9904;52.246;20.898;2023-05-10T09:39:31;13.00;;;2.20;;
19519;SDS011;9904;52.246;20.898;2023-05-10T09:42:02;5.70;;;2.10;;
19519;SDS011;9904;52.246;20.898;2023-05-10T09:44:32;3.97;;;2.00;;
19519;SDS011;9904;52.246;20.898;2023-05-10T09:47:00;4.57;;;1.80;;
19519;SDS011;9904;52.246;20.898;2023-05-10T09:49:27;9.33;;;1.70;;
19519;SDS011;9904;52.246;20.898;2023-05-10T09:52:00;7.70;;;2.40;;
19519;SDS011;9904;52.246;20.898;2023-05-10T09:54:27;8.47;;;2.03;;
19519;SDS011;9904;52.246;20.898;2023-05-10T09:56:54;7.97;;;2.20;;
19519;SDS011;9904;52.246;20.898;2023-05-10T09:59:20;9.30;;;2.40;;
19519;SDS011;9904;52.246;20.898;2023-05-10T10:01:50;7.57;;;2.10;;
19519;SDS011;9904;52.246;20.898;2023-05-10T10:04:20;6.35;;;2.20;;
19519;SDS011;9904;52.246;20.898;2023-05-10T10:06:48;9.17;;;2.10;;
19519;SDS011;9904;52.246;20.898;2023-05-10T10:09:24;10.80;;;2.43;;
19519;SDS011;9904;52.246;20.898;2023-05-10T10:11:51;4.83;;;1.90;;
19519;SDS011;9904;52.246;20.898;2023-05-10T10:14:18;6.20;;;2.10;;
19519;SDS011;9904;52.246;20.898;2023-05-10T10:16:45;9.43;;;2.03;;
19519;SDS011;9904;52.246;20.898;2023-05-10T10:19:31;7.13;;;1.70;;
19519;SDS011;9904;52.246;20.898;2023-05-10T10:21:59;7.60;;;2.30;;
19519;SDS011;9904;52.246;20.898;2023-05-10T10:24:26;4.77;;;2.00;;
19519;SDS011;9904;52.246;20.898;2023-05-10T10:26:53;9.50;;;2.40;;
19519;SDS011;9904;52.246;20.898;2023-05-10T10:29:36;8.33;;;2.10;;
19519;SDS011;9904;52.246;20.898;2023-05-10T10:34:47;11.67;;;2.00;;
19519;SDS011;9904;52.246;20.898;2023-05-10T10:37:13;5.23;;;2.20;;
19519;SDS011;9904;52.246;20.898;2023-05-10T10:39:40;7.47;;;2.20;;
19519;SDS011;9904;52.246;20.898;2023-05-10T10:42:07;7.97;;;2.00;;
19519;SDS011;9904;52.246;20.898;2023-05-10T10:44:34;7.13;;;1.87;;
19519;SDS011;9904;52.246;20.898;2023-05-10T10:47:07;5.03;;;1.90;;
19519;SDS011;9904;52.246;20.898;2023-05-10T10:52:20;6.70;;;2.37;;
19519;SDS011;9904;52.246;20.898;2023-05-10T10:55:01;6.63;;;2.10;;
19519;SDS011;9904;52.246;20.898;2023-05-10T10:57:35;14.37;;;2.77;;
19519;SDS011;9904;52.246;20.898;2023-05-10T11:00:24;7.40;;;2.00;;
19519;SDS011;9904;52.246;20.898;2023-05-10T11:03:04;4.53;;;2.10;;
19519;SDS011;9904;52.246;20.898;2023-05-10T11:05:48;5.57;;;2.10;;
19519;SDS011;9904;52.246;20.898;2023-05-10T11:08:18;4.63;;;2.17;;
19519;SDS011;9904;52.246;20.898;2023-05-10T11:10:51;8.97;;;2.00;;
19519;SDS011;9904;52.246;20.898;2023-05-10T11:13:39;7.57;;;2.07;;
19519;SDS011;9904;52.246;20.898;2023-05-10T11:19:00;6.03;;;2.20;;
19519;SDS011;9904;52.246;20.898;2023-05-10T11:21:30;4.77;;;1.80;;
19519;SDS011;9904;52.246;20.898;2023-05-10T11:23:57;7.27;;;2.00;;
19519;SDS011;9904;52.246;20.898;2023-05-10T11:26:25;8.30;;;2.53;;
19519;SDS011;9904;52.246;20.898;2023-05-10T11:28:56;4.77;;;2.00;;
19519;SDS011;9904;52.246;20.898;2023-05-10T11:31:25;7.23;;;2.00;;
19519;SDS011;9904;52.246;20.898;2023-05-10T11:33:54;9.03;;;2.50;;
19519;SDS011;9904;52.246;20.898;2023-05-10T11:36:23;12.20;;;2.20;;
19519;SDS011;9904;52.246;20.898;2023-05-10T11:38:52;9.77;;;2.20;;
19519;SDS011;9904;52.246;20.898;2023-05-10T11:41:19;9.07;;;2.03;;
19519;SDS011;9904;52.246;20.898;2023-05-10T11:43:49;7.47;;;1.90;;
19519;SDS011;9904;52.246;20.898;2023-05-10T11:46:18;8.20;;;2.00;;
19519;SDS011;9904;52.246;20.898;2023-05-10T11:48:46;12.13;;;2.77;;
19519;SDS011;9904;52.246;20.898;2023-05-10T11:51:14;7.67;;;2.03;;
19519;SDS011;9904;52.246;20.898;2023-05-10T11:53:41;7.03;;;2.20;;
19519;SDS011;9904;52.246;20.898;2023-05-10T11:56:08;14.23;;;2.60;;
19519;SDS011;9904;52.246;20.898;2023-05-10T11:58:36;5.03;;;1.93;;
19519;SDS011;9904;52.246;20.898;2023-05-10T12:01:03;5.40;;;2.27;;
19519;SDS011;9904;52.246;20.898;2023-05-10T12:03:31;8.70;;;2.17;;
19519;SDS011;9904;52.246;20.898;2023-05-10T12:05:58;6.53;;;1.80;;
19519;SDS011;9904;52.246;20.898;2023-05-10T12:08:26;5.47;;;2.03;;
19519;SDS011;9904;52.246;20.898;2023-05-10T12:11:03;13.60;;;2.57;;
19519;SDS011;9904;52.246;20.898;2023-05-10T12:13:31;10.10;;;2.00;;
19519;SDS011;9904;52.246;20.898;2023-05-10T12:15:57;7.77;;;2.00;;
19519;SDS011;9904;52.246;20.898;2023-05-10T12:18:24;11.07;;;2.10;;
19519;SDS011;9904;52.246;20.898;2023-05-10T12:20:52;11.40;;;1.90;;
19519;SDS011;9904;52.246;20.898;2023-05-10T12:23:20;6.17;;;2.10;;
19519;SDS011;9904;52.246;20.898;2023-05-10T12:25:46;8.97;;;2.07;;
19519;SDS011;9904;52.246;20.898;2023-05-10T12:28:13;8.63;;;1.87;;
19519;SDS011;9904;52.246;20.898;2023-05-10T12:30:39;5.80;;;1.87;;
19519;SDS011;9904;52.246;20.898;2023-05-10T12:41:07;7.13;;;2.07;;
19519;SDS011;9904;52.246;20.898;2023-05-10T12:43:35;10.40;;;2.33;;
19519;SDS011;9904;52.246;20.898;2023-05-10T12:46:09;5.40;;;1.87;;
19519;SDS011;9904;52.246;20.898;2023-05-10T12:48:37;5.77;;;1.80;;
19519;SDS011;9904;52.246;20.898;2023-05-10T12:51:04;7.63;;;1.73;;
19519;SDS011;9904;52.246;20.898;2023-05-10T12:53:31;9.23;;;2.00;;
19519;SDS011;9904;52.246;20.898;2023-05-10T12:55:57;7.37;;;1.97;;
19519;SDS011;9904;52.246;20.898;2023-05-10T12:58:24;9.67;;;2.00;;
19519;SDS011;9904;52.246;20.898;2023-05-10T13:01:01;9.23;;;2.13;;
19519;SDS011;9904;52.246;20.898;2023-05-10T13:03:28;5.20;;;1.50;;
19519;SDS011;9904;52.246;20.898;2023-05-10T13:05:54;6.87;;;1.80;;
19519;SDS011;9904;52.246;20.898;2023-05-10T13:08:21;7.73;;;2.10;;
19519;SDS011;9904;52.246;20.898;2023-05-10T13:10:48;8.93;;;1.80;;
19519;SDS011;9904;52.246;20.898;2023-05-10T13:13:15;10.67;;;2.00;;
19519;SDS011;9904;52.246;20.898;2023-05-10T13:15:41;6.17;;;1.70;;
19519;SDS011;9904;52.246;20.898;2023-05-10T13:18:08;7.80;;;1.90;;
19519;SDS011;9904;52.246;20.898;2023-05-10T13:20:35;4.43;;;1.63;;
19519;SDS011;9904;52.246;20.898;2023-05-10T13:23:01;9.68;;;2.03;;
19519;SDS011;9904;52.246;20.898;2023-05-10T13:25:28;5.87;;;2.07;;
19519;SDS011;9904;52.246;20.898;2023-05-10T13:27:56;5.63;;;2.07;;
19519;SDS011;9904;52.246;20.898;2023-05-10T13:30:22;10.50;;;2.28;;
19519;SDS011;9904;52.246;20.898;2023-05-10T13:32:50;7.30;;;1.95;;
19519;SDS011;9904;52.246;20.898;2023-05-10T13:35:16;7.80;;;1.98;;
19519;SDS011;9904;52.246;20.898;2023-05-10T13:37:43;8.82;;;2.20;;
19519;SDS011;9904;52.246;20.898;2023-05-10T13:40:10;7.88;;;2.30;;
19519;SDS011;9904;52.246;20.898;2023-05-10T13:42:36;10.50;;;2.10;;
19519;SDS011;9904;52.246;20.898;2023-05-10T13:45:03;6.20;;;1.90;;
19519;SDS011;9904;52.246;20.898;2023-05-10T13:47:30;3.60;;;1.73;;
19519;SDS011;9904;52.246;20.898;2023-05-10T13:49:57;5.77;;;2.00;;
19519;SDS011;9904;52.246;20.898;2023-05-10T13:52:24;6.73;;;1.90;;
19519;SDS011;9904;52.246;20.898;2023-05-10T13:54:51;4.63;;;2.07;;
19519;SDS011;9904;52.246;20.898;2023-05-10T13:57:18;5.93;;;2.10;;
19519;SDS011;9904;52.246;20.898;2023-05-10T13:59:45;7.47;;;1.90;;
19519;SDS011;9904;52.246;20.898;2023-05-10T14:02:11;4.67;;;1.90;;
19519;SDS011;9904;52.246;20.898;2023-05-10T14:04:39;6.77;;;1.77;;
19519;SDS011;9904;52.246;20.898;2023-05-10T14:07:06;5.97;;;2.17;;
19519;SDS011;9904;52.246;20.898;2023-05-10T14:09:32;7.57;;;1.93;;
19519;SDS011;9904;52.246;20.898;2023-05-10T14:11:59;6.90;;;2.10;;
19519;SDS011;9904;52.246;20.898;2023-05-10T14:14:26;3.80;;;1.77;;
19519;SDS011;9904;52.246;20.898;2023-05-10T14:16:52;13.10;;;1.90;;
19519;SDS011;9904;52.246;20.898;2023-05-10T14:19:19;6.10;;;2.23;;
19519;SDS011;9904;52.246;20.898;2023-05-10T14:21:45;6.77;;;1.67;;
19519;SDS011;9904;52.246;20.898;2023-05-10T14:24:12;5.43;;;1.70;;
19519;SDS011;9904;52.246;20.898;2023-05-10T14:26:39;4.25;;;2.05;;
19519;SDS011;9904;52.246;20.898;2023-05-10T14:29:05;4.47;;;1.80;;
19519;SDS011;9904;52.246;20.898;2023-05-10T14:31:33;9.37;;;2.10;;
19519;SDS011;9904;52.246;20.898;2023-05-10T14:34:00;6.97;;;2.20;;
19519;SDS011;9904;52.246;20.898;2023-05-10T14:36:27;5.67;;;1.83;;
19519;SDS011;9904;52.246;20.898;2023-05-10T14:38:55;10.87;;;1.83;;
19519;SDS011;9904;52.246;20.898;2023-05-10T14:41:21;9.60;;;2.23;;
19519;SDS011;9904;52.246;20.898;2023-05-10T14:43:49;7.77;;;1.80;;
19519;SDS011;9904;52.246;20.898;2023-05-10T14:46:15;11.93;;;1.97;;
19519;SDS011;9904;52.246;20.898;2023-05-10T14:48:42;5.93;;;2.20;;
19519;SDS011;9904;52.246;20.898;2023-05-10T14:51:08;4.10;;;2.10;;
19519;SDS011;9904;52.246;20.898;2023-05-10T14:53:35;4.73;;;1.80;;
19519;SDS011;9904;52.246;20.898;2023-05-10T14:56:01;7.43;;;1.93;;
19519;SDS011;9904;52.246;20.898;2023-05-10T14:58:29;6.43;;;2.00;;
19519;SDS011;9904;52.246;20.898;2023-05-10T15:00:59;4.33;;;2.00;;
19519;SDS011;9904;52.246;20.898;2023-05-10T15:03:26;7.60;;;1.80;;
19519;SDS011;9904;52.246;20.898;2023-05-10T15:05:54;5.77;;;1.80;;
19519;SDS011;9904;52.246;20.898;2023-05-10T15:08:22;7.10;;;2.10;;
19519;SDS011;9904;52.246;20.898;2023-05-10T15:10:50;8.87;;;1.83;;
19519;SDS011;9904;52.246;20.898;2023-05-10T15:13:17;7.60;;;1.80;;
19519;SDS011;9904;52.246;20.898;2023-05-10T15:15:44;7.27;;;1.93;;
19519;SDS011;9904;52.246;20.898;2023-05-10T15:18:10;7.97;;;2.10;;
19519;SDS011;9904;52.246;20.898;2023-05-10T15:20:37;7.57;;;1.87;;
19519;SDS011;9904;52.246;20.898;2023-05-10T15:23:04;6.07;;;1.90;;
19519;SDS011;9904;52.246;20.898;2023-05-10T15:25:30;5.23;;;1.90;;
19519;SDS011;9904;52.246;20.898;2023-05-10T15:27:57;11.48;;;2.03;;